Time;durP1;ratioP1;P1;durP2;ratioP2;P2;SDS_P1;SDS_P2;PMS_P1;PMS_P2;Temp;Humidity;BMP_temperature;BMP_pressure;BME280_temperature;BME280_humidity;BME280_pressure;Samples;Min_cycle;Max_cycle;Signal;HPM_P1;HPM_P2
2022/05/08 00:01:35;;;;;;;15.63;13.07;;;;;;;;;;5095318;28;21049;-69
2022/05/08 00:04:02;;;;;;;19.30;13.10;;;;;;;;;;5095801;28;20790;-69
2022/05/08 00:06:29;;;;;;;16.30;12.90;;;;;;;;;;5095509;28;20189;-69
2022/05/08 00:08:56;;;;;;;14.93;13.00;;;;;;;;;;5095049;28;20435;-69
2022/05/08 00:11:25;;;;;;;17.83;13.57;;;;;;;;;;5095380;28;20774;-70
2022/05/08 00:13:52;;;;;;;16.38;13.82;;;;;;;;;;5094813;28;21008;-69
2022/05/08 00:16:19;;;;;;;21.70;14.35;;;;;;;;;;5094320;28;20222;-69
2022/05/08 00:18:47;;;;;;;16.47;12.77;;;;;;;;;;5095170;28;20200;-69
2022/05/08 00:21:14;;;;;;;21.77;14.32;;;;;;;;;;5095184;28;20446;-70
2022/05/08 00:23:41;;;;;;;15.13;13.17;;;;;;;;;;5095453;28;20201;-70
2022/05/08 00:26:08;;;;;;;20.13;15.30;;;;;;;;;;5095102;28;20449;-70
2022/05/08 00:28:38;;;;;;;23.70;15.82;;;;;;;;;;5094974;28;20200;-70
2022/05/08 00:31:05;;;;;;;23.55;14.15;;;;;;;;;;5094739;28;20212;-69
2022/05/08 00:33:32;;;;;;;22.98;14.32;;;;;;;;;;5094806;28;20221;-70
2022/05/08 00:35:59;;;;;;;18.03;13.17;;;;;;;;;;5094947;28;20190;-70
2022/05/08 00:38:27;;;;;;;19.58;13.82;;;;;;;;;;5094792;28;20454;-70
2022/05/08 00:40:54;;;;;;;22.73;15.10;;;;;;;;;;5094838;28;20281;-70
2022/05/08 00:43:28;;;;;;;20.50;15.25;;;;;;;;;;5094927;28;20455;-70
2022/05/08 00:45:58;;;;;;;19.70;14.07;;;;;;;;;;5094692;28;20602;-70
2022/05/08 00:48:25;;;;;;;16.83;12.52;;;;;;;;;;5094191;28;20447;-69
2022/05/08 00:50:52;;;;;;;24.77;14.50;;;;;;;;;;5094934;28;20203;-69
2022/05/08 00:53:20;;;;;;;19.45;13.60;;;;;;;;;;5094900;28;20225;-70
2022/05/08 00:55:48;;;;;;;17.58;13.80;;;;;;;;;;5094266;28;20710;-70
2022/05/08 00:58:15;;;;;;;16.43;13.70;;;;;;;;;;5094510;28;20209;-70
2022/05/08 01:00:43;;;;;;;18.58;12.30;;;;;;;;;;5094036;28;20813;-70
2022/05/08 01:03:11;;;;;;;21.92;13.85;;;;;;;;;;5094631;28;20198;-69
2022/05/08 01:05:41;;;;;;;21.10;14.40;;;;;;;;;;5093962;28;20247;-69
2022/05/08 01:08:08;;;;;;;24.15;14.40;;;;;;;;;;5094252;28;20225;-70
2022/05/08 01:10:36;;;;;;;17.67;13.65;;;;;;;;;;5094202;28;20193;-69
2022/05/08 01:13:04;;;;;;;22.52;13.30;;;;;;;;;;5094148;28;20221;-69
2022/05/08 01:15:31;;;;;;;22.00;14.40;;;;;;;;;;5094141;28;20196;-70
2022/05/08 01:17:58;;;;;;;21.45;14.73;;;;;;;;;;5094149;28;20197;-70
2022/05/08 01:20:27;;;;;;;17.40;13.53;;;;;;;;;;5093649;28;20198;-70
2022/05/08 01:22:56;;;;;;;18.20;13.82;;;;;;;;;;5093697;28;20461;-70
2022/05/08 01:25:23;;;;;;;22.58;15.85;;;;;;;;;;5094013;28;20192;-70
2022/05/08 01:27:50;;;;;;;25.45;14.07;;;;;;;;;;5093440;28;20203;-70
2022/05/08 01:30:17;;;;;;;29.10;13.88;;;;;;;;;;5094126;28;20200;-70
2022/05/08 01:32:45;;;;;;;19.98;14.13;;;;;;;;;;5094394;28;20229;-69
2022/05/08 01:35:12;;;;;;;26.70;15.77;;;;;;;;;;5093837;28;20191;-69
2022/05/08 01:37:39;;;;;;;23.58;13.57;;;;;;;;;;5093880;28;20196;-69
2022/05/08 01:40:08;;;;;;;19.08;15.30;;;;;;;;;;5093457;28;20194;-69
2022/05/08 01:42:36;;;;;;;23.17;14.05;;;;;;;;;;5093515;28;20200;-69
2022/05/08 01:45:03;;;;;;;23.90;15.50;;;;;;;;;;5094166;28;20196;-69
2022/05/08 01:50:15;;;;;;;24.25;14.90;;;;;;;;;;5093531;28;20194;-69
2022/05/08 01:52:42;;;;;;;19.05;14.00;;;;;;;;;;5093596;28;20268;-69
2022/05/08 01:55:11;;;;;;;26.90;14.32;;;;;;;;;;5093837;28;20625;-69
2022/05/08 01:57:38;;;;;;;28.38;14.35;;;;;;;;;;5093345;28;20204;-70
2022/05/08 02:00:06;;;;;;;27.20;13.88;;;;;;;;;;5093841;28;20193;-70
2022/05/08 02:02:33;;;;;;;17.67;12.73;;;;;;;;;;5093617;28;20549;-70
2022/05/08 02:05:01;;;;;;;22.73;14.68;;;;;;;;;;5093584;28;20191;-70
2022/05/08 02:07:28;;;;;;;18.70;11.90;;;;;;;;;;5093840;28;20351;-70
2022/05/08 02:09:55;;;;;;;31.65;13.75;;;;;;;;;;5093558;28;20221;-70
2022/05/08 02:12:24;;;;;;;25.30;13.88;;;;;;;;;;5093589;28;20553;-70
2022/05/08 02:14:51;;;;;;;19.50;12.70;;;;;;;;;;5093137;28;20253;-70
2022/05/08 02:17:18;;;;;;;25.30;12.60;;;;;;;;;;5093483;28;20208;-70
2022/05/08 02:19:46;;;;;;;22.25;12.68;;;;;;;;;;5093766;28;20201;-71
2022/05/08 02:22:13;;;;;;;26.13;12.23;;;;;;;;;;5093789;28;20666;-70
2022/05/08 02:24:40;;;;;;;24.30;12.30;;;;;;;;;;5093054;28;20229;-70
2022/05/08 02:27:07;;;;;;;21.35;10.95;;;;;;;;;;5093400;28;20280;-70
2022/05/08 02:29:36;;;;;;;31.30;13.05;;;;;;;;;;5093043;28;20204;-70
2022/05/08 02:32:03;;;;;;;27.70;11.10;;;;;;;;;;5093086;28;20213;-70
2022/05/08 02:34:30;;;;;;;35.40;14.02;;;;;;;;;;5092998;28;20223;-70
2022/05/08 02:36:57;;;;;;;23.65;10.95;;;;;;;;;;5093254;28;20205;-70
2022/05/08 02:39:24;;;;;;;33.97;11.48;;;;;;;;;;5095315;28;20201;-70
2022/05/08 02:41:52;;;;;;;23.55;12.98;;;;;;;;;;5097035;28;20197;-70
2022/05/08 02:44:20;;;;;;;19.20;10.77;;;;;;;;;;5096811;28;20203;-69
2022/05/08 02:46:49;;;;;;;23.02;11.18;;;;;;;;;;5096676;28;20717;-69
2022/05/08 02:49:16;;;;;;;32.97;10.88;;;;;;;;;;5096709;28;20203;-70
2022/05/08 02:51:43;;;;;;;31.17;10.52;;;;;;;;;;5096601;28;20597;-69
2022/05/08 02:54:10;;;;;;;29.30;11.43;;;;;;;;;;5097008;28;20223;-69
2022/05/08 02:59:22;;;;;;;18.85;10.02;;;;;;;;;;5096636;28;20639;-70
2022/05/08 03:01:51;;;;;;;20.20;9.93;;;;;;;;;;5096558;28;20650;-70
2022/05/08 03:04:18;;;;;;;18.52;8.98;;;;;;;;;;5096389;28;20229;-70
2022/05/08 03:06:45;;;;;;;18.25;8.88;;;;;;;;;;5096606;28;20562;-70
2022/05/08 03:09:12;;;;;;;27.00;9.88;;;;;;;;;;5096668;28;20205;-70
2022/05/08 03:11:40;;;;;;;22.58;9.15;;;;;;;;;;5096561;28;20195;-70
2022/05/08 03:14:07;;;;;;;22.35;8.75;;;;;;;;;;5096491;28;20216;-70
2022/05/08 03:16:34;;;;;;;23.05;9.45;;;;;;;;;;5096410;28;20197;-70
2022/05/08 03:19:03;;;;;;;29.08;9.23;;;;;;;;;;5096118;28;20195;-70
2022/05/08 03:21:30;;;;;;;21.38;9.60;;;;;;;;;;5096443;28;20196;-70
2022/05/08 03:23:57;;;;;;;38.55;9.45;;;;;;;;;;5096388;28;20717;-70
2022/05/08 03:26:28;;;;;;;20.42;8.70;;;;;;;;;;5096230;28;20217;-70
2022/05/08 03:28:56;;;;;;;25.95;8.85;;;;;;;;;;5095971;28;20276;-70
2022/05/08 03:31:23;;;;;;;21.65;8.05;;;;;;;;;;5096165;28;20209;-70
2022/05/08 03:33:50;;;;;;;22.52;8.05;;;;;;;;;;5096515;28;20573;-71
2022/05/08 03:36:19;;;;;;;17.05;7.50;;;;;;;;;;5096025;28;20237;-70
2022/05/08 03:38:47;;;;;;;23.73;8.25;;;;;;;;;;5095767;28;20199;-70
2022/05/08 03:41:16;;;;;;;16.73;7.82;;;;;;;;;;5095849;28;20204;-70
2022/05/08 03:43:43;;;;;;;18.27;7.80;;;;;;;;;;5096271;28;20250;-71
2022/05/08 03:46:10;;;;;;;21.05;7.32;;;;;;;;;;5095569;28;20201;-70
2022/05/08 03:48:37;;;;;;;21.80;9.30;;;;;;;;;;5095889;28;20218;-73
2022/05/08 03:51:05;;;;;;;24.55;8.52;;;;;;;;;;5095329;28;20202;-71
2022/05/08 03:53:33;;;;;;;21.88;7.32;;;;;;;;;;5095796;28;20208;-70
2022/05/08 03:56:01;;;;;;;21.08;7.65;;;;;;;;;;5096333;28;20197;-70
2022/05/08 03:58:28;;;;;;;20.80;8.55;;;;;;;;;;5096377;28;20219;-70
2022/05/08 04:00:55;;;;;;;17.02;7.47;;;;;;;;;;5096281;28;20197;-71
2022/05/08 04:03:22;;;;;;;29.38;8.63;;;;;;;;;;5095586;28;20678;-73
2022/05/08 04:05:50;;;;;;;27.05;7.68;;;;;;;;;;5095503;28;20201;-73
2022/05/08 04:08:17;;;;;;;20.90;8.30;;;;;;;;;;5095424;28;20295;-72
2022/05/08 04:10:45;;;;;;;24.38;10.77;;;;;;;;;;5095772;28;20565;-73
2022/05/08 04:13:12;;;;;;;16.13;6.55;;;;;;;;;;5083413;28;20200;-72
2022/05/08 04:18:24;;;;;;;18.63;8.00;;;;;;;;;;5074891;28;20657;-72
2022/05/08 04:20:51;;;;;;;14.40;6.43;;;;;;;;;;5075057;28;20556;-72
2022/05/08 04:26:05;;;;;;;16.42;6.82;;;;;;;;;;5074835;28;20695;-72
2022/05/08 04:28:32;;;;;;;17.27;6.65;;;;;;;;;;5074785;28;20560;-72
2022/05/08 04:30:59;;;;;;;19.90;5.78;;;;;;;;;;5075217;28;20198;-72
2022/05/08 04:33:26;;;;;;;20.48;6.90;;;;;;;;;;5074647;28;20205;-72
2022/05/08 04:35:53;;;;;;;20.92;6.40;;;;;;;;;;5074397;28;20196;-72
2022/05/08 04:38:21;;;;;;;21.38;8.40;;;;;;;;;;5074554;28;20207;-72
2022/05/08 04:40:48;;;;;;;17.52;6.90;;;;;;;;;;5074250;28;20223;-72
2022/05/08 04:43:16;;;;;;;13.75;6.70;;;;;;;;;;5085208;28;20201;-72
2022/05/08 04:45:43;;;;;;;17.75;6.22;;;;;;;;;;5094736;28;20196;-73
2022/05/08 04:48:11;;;;;;;23.30;7.05;;;;;;;;;;5094924;28;20192;-72
2022/05/08 04:50:38;;;;;;;19.52;6.95;;;;;;;;;;5095059;28;20205;-73
2022/05/08 04:53:05;;;;;;;18.15;5.90;;;;;;;;;;5094203;28;20231;-73
2022/05/08 04:55:33;;;;;;;15.63;6.53;;;;;;;;;;5094203;28;20261;-72
2022/05/08 04:58:00;;;;;;;20.67;5.82;;;;;;;;;;5094169;28;20198;-72
2022/05/08 05:00:29;;;;;;;14.45;6.22;;;;;;;;;;5094514;28;20196;-72
2022/05/08 05:02:56;;;;;;;26.63;6.70;;;;;;;;;;5094164;28;20290;-72
2022/05/08 05:05:23;;;;;;;20.38;7.05;;;;;;;;;;5094085;28;20214;-72
2022/05/08 05:07:51;;;;;;;19.90;6.00;;;;;;;;;;5094282;28;20197;-72
2022/05/08 05:10:19;;;;;;;18.20;7.07;;;;;;;;;;5094051;28;20198;-72
2022/05/08 05:12:46;;;;;;;17.27;6.50;;;;;;;;;;5094076;28;20196;-72
2022/05/08 05:15:13;;;;;;;19.23;5.65;;;;;;;;;;5094171;28;20508;-72
2022/05/08 05:17:42;;;;;;;23.20;8.15;;;;;;;;;;5093752;28;20298;-72
2022/05/08 05:20:10;;;;;;;16.27;5.72;;;;;;;;;;5093865;28;20705;-72
2022/05/08 05:22:37;;;;;;;16.52;5.93;;;;;;;;;;5093774;28;20199;-72
2022/05/08 05:25:04;;;;;;;37.15;7.18;;;;;;;;;;5093969;28;20204;-72
2022/05/08 05:27:31;;;;;;;32.30;6.95;;;;;;;;;;5093879;28;20195;-72
2022/05/08 05:29:58;;;;;;;13.77;5.45;;;;;;;;;;5094040;28;20195;-72
2022/05/08 05:32:27;;;;;;;21.63;6.00;;;;;;;;;;5093902;28;20191;-72
2022/05/08 05:34:55;;;;;;;20.42;6.05;;;;;;;;;;5093606;28;20506;-72
2022/05/08 05:37:22;;;;;;;20.52;6.43;;;;;;;;;;5093851;28;20194;-72
2022/05/08 05:39:49;;;;;;;17.13;5.90;;;;;;;;;;5093854;28;20197;-72
2022/05/08 05:42:17;;;;;;;16.83;5.00;;;;;;;;;;5093341;28;20220;-72
2022/05/08 05:44:44;;;;;;;14.38;5.57;;;;;;;;;;5094036;28;20197;-76
2022/05/08 05:50:06;;;;;;;16.52;6.85;;;;;;;;;;5056996;28;20193;-68
2022/05/08 05:52:35;;;;;;;17.50;6.93;;;;;;;;;;5093399;28;20313;-68
2022/05/08 05:55:04;;;;;;;13.77;6.45;;;;;;;;;;5093670;28;20225;-67
2022/05/08 05:57:31;;;;;;;14.75;4.97;;;;;;;;;;5093362;28;20201;-67
2022/05/08 05:59:58;;;;;;;19.10;5.63;;;;;;;;;;5093698;28;20201;-67
2022/05/08 06:02:25;;;;;;;11.52;4.95;;;;;;;;;;5094062;28;20202;-67
2022/05/08 06:04:53;;;;;;;16.48;6.90;;;;;;;;;;5093978;28;20200;-67
2022/05/08 06:07:22;;;;;;;17.08;4.97;;;;;;;;;;5093323;28;20200;-67
2022/05/08 06:09:49;;;;;;;14.63;6.07;;;;;;;;;;5093500;28;20207;-67
2022/05/08 06:12:16;;;;;;;15.70;5.40;;;;;;;;;;5093483;28;20201;-67
2022/05/08 06:14:46;;;;;;;15.77;6.20;;;;;;;;;;5096446;28;20307;-67
2022/05/08 06:17:13;;;;;;;20.95;5.55;;;;;;;;;;5097589;28;20562;-67
2022/05/08 06:19:40;;;;;;;31.77;6.80;;;;;;;;;;5097640;28;20257;-67
2022/05/08 06:22:07;;;;;;;13.07;5.20;;;;;;;;;;5098030;28;20198;-67
2022/05/08 06:24:38;;;;;;;18.73;8.15;;;;;;;;;;5097098;28;20202;-67
2022/05/08 06:27:05;;;;;;;16.23;5.20;;;;;;;;;;5097171;28;20210;-67
2022/05/08 06:29:33;;;;;;;24.35;8.32;;;;;;;;;;5097254;28;20202;-66
2022/05/08 06:32:00;;;;;;;9.50;5.60;;;;;;;;;;5097352;28;20195;-66
2022/05/08 06:34:27;;;;;;;20.58;6.43;;;;;;;;;;5097395;28;20599;-67
2022/05/08 06:36:54;;;;;;;11.30;5.10;;;;;;;;;;5097280;28;20225;-67
2022/05/08 06:39:22;;;;;;;12.07;5.38;;;;;;;;;;5097035;28;20204;-67
2022/05/08 06:41:50;;;;;;;8.80;5.63;;;;;;;;;;5096790;28;20660;-67
2022/05/08 06:44:18;;;;;;;14.85;5.18;;;;;;;;;;5096889;28;20201;-67
2022/05/08 06:46:45;;;;;;;17.85;7.03;;;;;;;;;;5096823;28;20652;-67
2022/05/08 06:49:12;;;;;;;21.65;7.25;;;;;;;;;;5096946;28;20206;-67
2022/05/08 06:51:39;;;;;;;25.38;6.90;;;;;;;;;;5096548;28;20225;-67
2022/05/08 06:54:06;;;;;;;15.47;6.50;;;;;;;;;;5096758;28;20220;-66
2022/05/08 06:56:35;;;;;;;17.23;7.83;;;;;;;;;;5096829;28;20525;-67
2022/05/08 07:01:49;;;;;;;23.20;5.80;;;;;;;;;;5096784;28;20607;-67
2022/05/08 07:04:16;;;;;;;18.13;5.80;;;;;;;;;;5096231;28;20207;-66
2022/05/08 07:06:46;;;;;;;16.85;6.65;;;;;;;;;;5096596;28;20435;-66
2022/05/08 07:09:14;;;;;;;18.35;6.25;;;;;;;;;;5096100;28;20201;-67
2022/05/08 07:11:44;;;;;;;12.25;6.30;;;;;;;;;;5097006;28;20204;-67
2022/05/08 07:14:13;;;;;;;11.05;5.22;;;;;;;;;;5095974;28;20237;-67
2022/05/08 07:16:40;;;;;;;12.80;5.70;;;;;;;;;;5096931;28;20192;-66
2022/05/08 07:19:07;;;;;;;9.13;5.05;;;;;;;;;;5096277;28;20204;-66
2022/05/08 07:21:35;;;;;;;12.93;4.93;;;;;;;;;;5096007;28;20288;-67
2022/05/08 07:24:02;;;;;;;20.55;6.28;;;;;;;;;;5095780;28;20556;-66
2022/05/08 07:26:29;;;;;;;16.20;5.70;;;;;;;;;;5096256;28;20559;-68
2022/05/08 07:28:56;;;;;;;16.05;6.13;;;;;;;;;;5096200;28;20197;-68
2022/05/08 07:31:32;;;;;;;14.90;4.93;;;;;;;;;;5096383;28;20201;-67
2022/05/08 07:36:44;;;;;;;15.23;5.60;;;;;;;;;;5095931;28;20438;-66
2022/05/08 07:39:11;;;;;;;14.47;5.37;;;;;;;;;;5095888;28;20204;-67
2022/05/08 07:41:39;;;;;;;8.87;4.60;;;;;;;;;;5095602;28;20439;-66
2022/05/08 07:44:06;;;;;;;14.43;4.70;;;;;;;;;;5095721;28;20841;-66
2022/05/08 07:46:35;;;;;;;16.80;5.93;;;;;;;;;;5095881;28;20440;-67
2022/05/08 07:49:02;;;;;;;14.40;6.13;;;;;;;;;;5095764;28;20514;-66
2022/05/08 07:51:29;;;;;;;13.63;6.23;;;;;;;;;;5095922;28;20558;-67
2022/05/08 07:53:57;;;;;;;13.63;6.33;;;;;;;;;;5095999;28;20812;-66
2022/05/08 07:56:24;;;;;;;14.33;5.03;;;;;;;;;;5095430;28;20834;-67
2022/05/08 07:58:52;;;;;;;8.57;6.80;;;;;;;;;;5095695;28;20440;-66
2022/05/08 08:01:19;;;;;;;15.00;6.10;;;;;;;;;;5095238;28;21019;-67
2022/05/08 08:03:47;;;;;;;19.13;6.20;;;;;;;;;;5095560;28;20439;-67
2022/05/08 08:06:14;;;;;;;15.27;6.53;;;;;;;;;;5095068;28;20454;-67
2022/05/08 08:08:42;;;;;;;11.35;5.45;;;;;;;;;;5095128;28;20439;-67
2022/05/08 08:11:10;;;;;;;13.87;5.87;;;;;;;;;;5095347;28;20626;-66
2022/05/08 08:13:38;;;;;;;9.43;5.43;;;;;;;;;;5095058;28;20526;-67
2022/05/08 08:16:06;;;;;;;15.83;4.83;;;;;;;;;;5095132;28;20217;-67
2022/05/08 08:18:33;;;;;;;19.63;6.43;;;;;;;;;;5095258;28;20534;-67
2022/05/08 08:21:01;;;;;;;15.50;5.80;;;;;;;;;;5095019;28;20876;-67
2022/05/08 08:23:30;;;;;;;15.77;5.27;;;;;;;;;;5095139;28;20885;-67
2022/05/08 08:25:57;;;;;;;12.93;6.30;;;;;;;;;;5094995;28;20538;-67
2022/05/08 08:28:24;;;;;;;15.93;5.60;;;;;;;;;;5095368;28;20443;-67
2022/05/08 08:30:52;;;;;;;19.10;7.33;;;;;;;;;;5094602;28;20450;-67
2022/05/08 08:33:19;;;;;;;14.80;5.37;;;;;;;;;;5094675;28;20437;-66
2022/05/08 08:35:46;;;;;;;15.83;5.97;;;;;;;;;;5093798;28;20467;-68
2022/05/08 08:38:15;;;;;;;12.83;5.40;;;;;;;;;;5094778;28;20447;-67
2022/05/08 08:40:43;;;;;;;12.97;6.13;;;;;;;;;;5094932;28;20925;-67
2022/05/08 08:43:11;;;;;;;22.17;6.93;;;;;;;;;;5094945;28;20452;-67
2022/05/08 08:48:27;;;;;;;15.07;6.07;;;;;;;;;;5094751;28;20403;-68
2022/05/08 08:50:55;;;;;;;17.03;5.47;;;;;;;;;;5094933;28;20428;-67
2022/05/08 08:53:24;;;;;;;12.43;4.97;;;;;;;;;;5094191;28;20468;-68
2022/05/08 08:55:51;;;;;;;16.10;6.50;;;;;;;;;;5094444;28;20481;-67
2022/05/08 08:58:18;;;;;;;14.53;5.57;;;;;;;;;;5094556;28;20458;-67
2022/05/08 09:00:47;;;;;;;8.47;5.33;;;;;;;;;;5094334;28;20514;-68
2022/05/08 09:03:18;;;;;;;13.83;5.50;;;;;;;;;;5094934;28;20462;-67
2022/05/08 09:05:46;;;;;;;14.67;6.50;;;;;;;;;;5094758;28;20433;-68
2022/05/08 09:08:26;;;;;;;19.23;6.07;;;;;;;;;;5095074;28;20443;-67
2022/05/08 09:10:56;;;;;;;14.73;5.50;;;;;;;;;;5094704;28;20427;-69
2022/05/08 09:13:24;;;;;;;14.60;5.77;;;;;;;;;;5094678;28;20421;-68
2022/05/08 09:15:53;;;;;;;11.87;5.10;;;;;;;;;;5094102;28;20475;-68
2022/05/08 09:18:20;;;;;;;21.80;4.47;;;;;;;;;;5093538;28;20436;-68
2022/05/08 09:20:49;;;;;;;9.07;4.77;;;;;;;;;;5093903;28;20933;-68
2022/05/08 09:23:17;;;;;;;9.83;5.27;;;;;;;;;;5093692;28;20447;-68
2022/05/08 09:25:45;;;;;;;15.97;5.00;;;;;;;;;;5094109;28;20526;-67
2022/05/08 09:28:14;;;;;;;8.70;4.17;;;;;;;;;;5093751;28;20444;-67
2022/05/08 09:30:58;;;;;;;12.50;5.30;;;;;;;;;;5094301;28;20444;-67
2022/05/08 09:33:26;;;;;;;12.47;4.57;;;;;;;;;;5094354;28;20439;-67
2022/05/08 09:35:53;;;;;;;9.40;5.27;;;;;;;;;;5093845;28;20484;-68
2022/05/08 09:38:20;;;;;;;11.43;5.53;;;;;;;;;;5093873;28;20446;-68
2022/05/08 09:41:05;;;;;;;12.73;5.70;;;;;;;;;;5093450;28;20436;-68
2022/05/08 09:43:34;;;;;;;7.40;4.70;;;;;;;;;;5093880;28;20439;-67
2022/05/08 09:46:02;;;;;;;6.57;3.97;;;;;;;;;;5093678;28;20437;-68
2022/05/08 09:48:30;;;;;;;13.40;4.90;;;;;;;;;;5093086;28;20925;-67
2022/05/08 09:50:58;;;;;;;8.73;4.80;;;;;;;;;;5093501;28;20436;-67
2022/05/08 09:53:29;;;;;;;7.87;5.03;;;;;;;;;;5093210;28;20473;-67
2022/05/08 09:55:56;;;;;;;9.37;4.43;;;;;;;;;;5093182;28;20479;-68
2022/05/08 09:58:24;;;;;;;12.70;4.63;;;;;;;;;;5093400;28;20441;-67
2022/05/08 10:00:54;;;;;;;11.20;5.67;;;;;;;;;;5093650;28;20450;-67
2022/05/08 10:03:22;;;;;;;9.43;4.00;;;;;;;;;;5093589;28;20420;-67
2022/05/08 10:05:49;;;;;;;10.40;4.80;;;;;;;;;;5093540;28;20443;-67
2022/05/08 10:08:17;;;;;;;11.00;5.60;;;;;;;;;;5093518;28;20471;-67
2022/05/08 10:13:56;;;;;;;8.70;4.00;;;;;;;;;;5093141;28;20400;-68
2022/05/08 10:16:42;;;;;;;6.97;3.87;;;;;;;;;;5092998;28;20470;-68
2022/05/08 10:19:27;;;;;;;6.87;4.63;;;;;;;;;;5093482;28;20442;-68
2022/05/08 10:22:06;;;;;;;10.33;5.30;;;;;;;;;;5093387;28;20448;-68
2022/05/08 10:24:35;;;;;;;12.43;4.73;;;;;;;;;;5093459;28;20493;-68
2022/05/08 10:27:14;;;;;;;23.07;8.80;;;;;;;;;;5093422;28;20444;-68
2022/05/08 10:29:41;;;;;;;13.30;7.60;;;;;;;;;;5093685;28;20442;-68
2022/05/08 10:32:10;;;;;;;13.90;6.03;;;;;;;;;;5092713;28;20439;-68
2022/05/08 10:34:39;;;;;;;13.20;4.47;;;;;;;;;;5093347;28;20440;-68
2022/05/08 10:37:27;;;;;;;7.13;4.60;;;;;;;;;;5092840;28;20971;-68
2022/05/08 10:39:55;;;;;;;10.70;5.07;;;;;;;;;;5088236;28;20505;-68
2022/05/08 10:42:42;;;;;;;8.53;4.23;;;;;;;;;;5092690;28;20477;-69
2022/05/08 10:45:29;;;;;;;11.03;4.57;;;;;;;;;;5093190;28;20444;-68
2022/05/08 10:47:56;;;;;;;6.67;4.97;;;;;;;;;;5092459;28;20437;-68
2022/05/08 10:50:24;;;;;;;15.37;4.37;;;;;;;;;;5093472;28;20527;-68
2022/05/08 10:52:51;;;;;;;12.20;4.57;;;;;;;;;;5085414;28;20480;-68
2022/05/08 10:55:19;;;;;;;16.83;4.37;;;;;;;;;;5072737;28;20634;-68
2022/05/08 10:57:48;;;;;;;9.40;3.83;;;;;;;;;;5073145;28;20446;-68
2022/05/08 11:00:18;;;;;;;9.70;4.80;;;;;;;;;;5074618;28;20441;-68
2022/05/08 11:02:47;;;;;;;5.87;3.87;;;;;;;;;;5076468;28;20511;-68
2022/05/08 11:05:15;;;;;;;9.50;4.77;;;;;;;;;;5076343;28;20441;-69
2022/05/08 11:07:49;;;;;;;8.27;4.07;;;;;;;;;;5076588;28;20499;-67
2022/05/08 11:10:16;;;;;;;8.07;4.10;;;;;;;;;;5076055;28;20491;-67
2022/05/08 11:12:58;;;;;;;10.17;4.33;;;;;;;;;;5076427;28;20536;-67
2022/05/08 11:15:26;;;;;;;8.23;3.90;;;;;;;;;;5075852;28;20443;-67
2022/05/08 11:18:07;;;;;;;10.27;5.37;;;;;;;;;;5075649;28;21022;-67
2022/05/08 11:20:36;;;;;;;14.10;4.60;;;;;;;;;;5075759;28;20432;-67
2022/05/08 11:23:04;;;;;;;9.83;4.67;;;;;;;;;;5086368;28;20448;-67
2022/05/08 11:25:31;;;;;;;9.80;4.30;;;;;;;;;;5096018;28;20436;-68
2022/05/08 11:28:00;;;;;;;8.50;4.20;;;;;;;;;;5096160;28;20502;-67
2022/05/08 11:30:28;;;;;;;17.63;5.20;;;;;;;;;;5096268;28;20525;-69
2022/05/08 11:38:30;;;;;;;8.40;4.80;;;;;;;;;;5095781;28;20451;-68
2022/05/08 11:40:57;;;;;;;8.63;5.40;;;;;;;;;;5095758;28;20952;-68
2022/05/08 11:43:42;;;;;;;17.63;4.40;;;;;;;;;;5096123;28;20444;-67
2022/05/08 11:46:10;;;;;;;8.30;4.10;;;;;;;;;;5096049;28;20448;-67
2022/05/08 11:48:43;;;;;;;6.90;3.73;;;;;;;;;;5095510;28;20447;-67
2022/05/08 11:51:11;;;;;;;10.37;4.33;;;;;;;;;;5095520;28;20453;-67
2022/05/08 11:53:42;;;;;;;10.70;4.13;;;;;;;;;;5095481;28;20916;-68
2022/05/08 11:56:24;;;;;;;14.57;4.93;;;;;;;;;;5095820;28;20527;-67
2022/05/08 11:58:52;;;;;;;6.20;4.40;;;;;;;;;;5093540;28;20876;-67
2022/05/08 12:01:23;;;;;;;15.90;6.37;;;;;;;;;;5095668;28;20439;-67
2022/05/08 12:03:51;;;;;;;8.70;4.20;;;;;;;;;;5095484;28;20775;-68
2022/05/08 12:06:18;;;;;;;7.50;3.90;;;;;;;;;;5095221;28;20442;-67
2022/05/08 12:08:45;;;;;;;8.73;5.10;;;;;;;;;;5095001;28;20549;-67
2022/05/08 12:11:28;;;;;;;9.07;3.80;;;;;;;;;;5095125;28;20520;-67
2022/05/08 12:14:08;;;;;;;9.23;3.83;;;;;;;;;;5095791;28;20836;-68
2022/05/08 12:16:35;;;;;;;9.73;4.20;;;;;;;;;;5093324;28;20999;-68
2022/05/08 12:19:16;;;;;;;8.33;4.67;;;;;;;;;;5095297;28;20476;-67
2022/05/08 12:21:44;;;;;;;12.80;4.27;;;;;;;;;;5095131;28;20444;-67
2022/05/08 12:24:12;;;;;;;6.50;4.03;;;;;;;;;;5095300;28;20525;-67
2022/05/08 12:26:39;;;;;;;9.17;4.60;;;;;;;;;;5095063;28;20467;-68
2022/05/08 12:29:09;;;;;;;10.07;4.30;;;;;;;;;;5095355;28;20443;-68
2022/05/08 12:31:37;;;;;;;7.03;4.00;;;;;;;;;;5095094;28;20443;-68
2022/05/08 12:34:06;;;;;;;6.90;4.37;;;;;;;;;;5094715;28;20451;-67
2022/05/08 12:36:33;;;;;;;11.80;4.40;;;;;;;;;;5094720;28;20476;-68
2022/05/08 12:39:00;;;;;;;11.00;4.20;;;;;;;;;;5094756;28;20465;-67
2022/05/08 12:41:28;;;;;;;13.03;6.80;;;;;;;;;;5094790;28;20447;-68
2022/05/08 12:43:55;;;;;;;10.03;4.50;;;;;;;;;;5094154;28;20450;-67
2022/05/08 12:46:23;;;;;;;7.20;4.50;;;;;;;;;;5094537;28;20532;-69
2022/05/08 12:48:50;;;;;;;9.63;4.37;;;;;;;;;;5094616;28;20467;-67
2022/05/08 12:51:18;;;;;;;9.50;4.63;;;;;;;;;;5094696;28;20445;-68
2022/05/08 12:53:45;;;;;;;15.27;4.27;;;;;;;;;;5094332;28;20899;-68
2022/05/08 12:56:12;;;;;;;8.20;4.83;;;;;;;;;;5094219;28;20820;-68
2022/05/08 13:01:26;;;;;;;5.57;3.90;;;;;;;;;;5094089;28;20391;-67
2022/05/08 13:03:53;;;;;;;7.47;3.93;;;;;;;;;;5093838;28;20534;-68
2022/05/08 13:06:21;;;;;;;6.37;4.90;;;;;;;;;;5093894;28;20454;-68
2022/05/08 13:08:48;;;;;;;13.57;8.27;;;;;;;;;;5094150;28;20528;-67
2022/05/08 13:11:15;;;;;;;8.20;6.47;;;;;;;;;;5094322;28;20549;-67
2022/05/08 13:13:42;;;;;;;7.67;4.30;;;;;;;;;;5094013;28;20444;-70
2022/05/08 13:16:14;;;;;;;6.43;3.87;;;;;;;;;;5093751;28;20452;-67
2022/05/08 13:18:42;;;;;;;15.57;4.20;;;;;;;;;;5094086;28;20421;-65
2022/05/08 13:21:12;;;;;;;9.27;4.00;;;;;;;;;;5094250;28;20464;-63
2022/05/08 13:23:39;;;;;;;9.97;3.93;;;;;;;;;;5093517;28;20444;-65
2022/05/08 13:26:07;;;;;;;6.63;3.97;;;;;;;;;;5093525;28;20441;-65
2022/05/08 13:28:41;;;;;;;7.23;4.13;;;;;;;;;;5093819;28;20506;-65
2022/05/08 13:31:08;;;;;;;4.57;3.30;;;;;;;;;;5093492;28;20432;-65
2022/05/08 13:33:35;;;;;;;7.50;3.53;;;;;;;;;;5093302;28;21012;-66
2022/05/08 13:36:04;;;;;;;7.23;3.20;;;;;;;;;;5093266;28;20540;-65
2022/05/08 13:38:32;;;;;;;6.57;4.00;;;;;;;;;;5093869;28;20486;-65
2022/05/08 13:41:00;;;;;;;8.73;4.10;;;;;;;;;;5093059;28;20539;-65
2022/05/08 13:43:27;;;;;;;12.53;5.13;;;;;;;;;;5093564;28;20803;-65
2022/05/08 13:45:55;;;;;;;6.27;3.40;;;;;;;;;;5093481;28;20871;-65
2022/05/08 13:48:22;;;;;;;8.50;3.27;;;;;;;;;;5092888;28;20933;-65
2022/05/08 13:50:50;;;;;;;9.20;4.00;;;;;;;;;;5093258;28;20549;-65
2022/05/08 13:53:20;;;;;;;5.30;3.33;;;;;;;;;;5093076;28;20510;-66
2022/05/08 13:55:49;;;;;;;9.53;3.20;;;;;;;;;;5093290;28;20430;-66
2022/05/08 13:58:16;;;;;;;3.87;2.40;;;;;;;;;;5093307;28;20480;-66
2022/05/08 14:00:48;;;;;;;7.20;3.43;;;;;;;;;;5093303;28;20520;-66
2022/05/08 14:03:16;;;;;;;7.77;3.43;;;;;;;;;;5093025;28;20433;-65
2022/05/08 14:05:43;;;;;;;5.60;3.47;;;;;;;;;;5092954;28;20962;-65
2022/05/08 14:08:10;;;;;;;7.50;2.93;;;;;;;;;;5093301;28;20445;-65
2022/05/08 14:10:39;;;;;;;4.93;2.77;;;;;;;;;;5093244;28;20445;-65
2022/05/08 14:13:06;;;;;;;12.37;5.27;;;;;;;;;;5093244;28;20446;-66
2022/05/08 14:15:34;;;;;;;8.43;3.20;;;;;;;;;;5092803;28;20446;-66
2022/05/08 14:18:01;;;;;;;5.93;2.67;;;;;;;;;;5093056;28;20477;-66
2022/05/08 14:20:28;;;;;;;6.00;3.33;;;;;;;;;;5092859;28;20438;-65
2022/05/08 14:22:56;;;;;;;8.70;4.07;;;;;;;;;;5093480;28;20488;-65
2022/05/08 14:25:23;;;;;;;11.90;3.87;;;;;;;;;;5093133;28;20809;-66
2022/05/08 14:27:52;;;;;;;12.17;3.17;;;;;;;;;;5092812;28;20538;-66
2022/05/08 14:30:19;;;;;;;10.43;3.23;;;;;;;;;;5093237;28;20443;-66
2022/05/08 14:38:23;;;;;;;6.40;2.80;;;;;;;;;;5096286;28;20978;-65
2022/05/08 14:40:50;;;;;;;6.33;3.13;;;;;;;;;;5096508;28;20460;-66
2022/05/08 14:43:21;;;;;;;7.00;3.83;;;;;;;;;;5096734;28;20442;-66
2022/05/08 14:45:48;;;;;;;17.57;12.03;;;;;;;;;;5097002;28;20466;-66
2022/05/08 14:48:17;;;;;;;10.83;3.60;;;;;;;;;;5096792;28;20483;-65
2022/05/08 14:50:45;;;;;;;11.53;3.10;;;;;;;;;;5096681;28;20450;-65
2022/05/08 14:53:13;;;;;;;3.87;2.67;;;;;;;;;;5096694;28;21041;-66
2022/05/08 14:55:41;;;;;;;5.73;2.63;;;;;;;;;;5096799;28;20526;-66
2022/05/08 14:58:10;;;;;;;13.00;3.10;;;;;;;;;;5096148;28;20470;-66
2022/05/08 15:00:39;;;;;;;4.10;2.90;;;;;;;;;;5096105;28;20457;-66
2022/05/08 15:03:06;;;;;;;4.17;2.97;;;;;;;;;;5096204;28;20931;-65
2022/05/08 15:05:33;;;;;;;6.23;2.90;;;;;;;;;;5096325;28;20530;-65
2022/05/08 15:08:01;;;;;;;4.17;2.87;;;;;;;;;;5096435;28;20435;-65
2022/05/08 15:10:28;;;;;;;6.47;3.53;;;;;;;;;;5096394;28;20830;-65
2022/05/08 15:12:55;;;;;;;9.27;5.33;;;;;;;;;;5095904;28;20443;-66
2022/05/08 15:15:22;;;;;;;5.17;4.30;;;;;;;;;;5095846;28;20447;-65
2022/05/08 15:20:36;;;;;;;3.90;2.93;;;;;;;;;;5096075;28;20403;-65